createdAt,value
2023-06-04T00:01:16.439Z,15.24
2023-06-04T00:03:45.263Z,15.22
2023-06-04T00:06:13.490Z,15.21
2023-06-04T00:08:41.457Z,15.20
2023-06-04T00:11:10.862Z,15.16
2023-06-04T00:13:38.851Z,15.16
2023-06-04T00:16:07.175Z,15.18
2023-06-04T00:18:35.140Z,15.18
2023-06-04T00:21:03.112Z,15.18
2023-06-04T00:23:31.099Z,15.10
2023-06-04T00:25:59.032Z,14.97
2023-06-04T00:28:28.361Z,14.91
2023-06-04T00:30:56.305Z,14.97
2023-06-04T00:33:24.231Z,14.92
2023-06-04T00:35:52.190Z,14.85
2023-06-04T00:38:20.150Z,14.92
2023-06-04T00:40:48.147Z,14.89
2023-06-04T00:43:16.108Z,14.82
2023-06-04T00:45:45.465Z,14.68
2023-06-04T00:48:13.716Z,14.66
2023-06-04T00:50:41.783Z,14.66
2023-06-04T00:53:09.799Z,14.69
2023-06-04T00:55:37.749Z,13.95
2023-06-04T00:58:05.987Z,14.10
2023-06-04T01:00:34.622Z,14.26
2023-06-04T01:03:07.065Z,14.35
2023-06-04T01:05:40.103Z,14.38
2023-06-04T01:08:10.051Z,14.06
2023-06-04T01:10:38.256Z,13.98
2023-06-04T01:13:06.298Z,14.17
2023-06-04T01:15:34.258Z,14.15
2023-06-04T01:18:07.069Z,13.96
2023-06-04T01:20:37.661Z,13.63
2023-06-04T01:23:28.329Z,13.67
2023-06-04T01:25:58.622Z,13.53
2023-06-04T01:28:28.122Z,13.36
2023-06-04T01:30:57.706Z,13.26
2023-06-04T01:33:27.450Z,13.39
2023-06-04T01:35:55.761Z,13.49
2023-06-04T01:38:23.772Z,13.14
2023-06-04T01:40:54.133Z,12.85
2023-06-04T01:43:22.096Z,12.09
2023-06-04T01:45:50.469Z,11.66
2023-06-04T01:48:18.925Z,11.73
2023-06-04T01:50:48.264Z,11.96
2023-06-04T01:53:16.295Z,12.26
2023-06-04T01:55:44.324Z,12.52
2023-06-04T01:58:12.308Z,12.77
2023-06-04T02:00:40.265Z,12.90
2023-06-04T02:03:09.824Z,13.03
2023-06-04T02:05:37.900Z,13.05
2023-06-04T02:08:07.700Z,12.95
2023-06-04T02:10:35.682Z,12.82
2023-06-04T02:13:04.899Z,12.69
2023-06-04T02:15:34.048Z,12.67
2023-06-04T02:18:17.551Z,12.73
2023-06-04T02:20:46.833Z,12.87
2023-06-04T02:23:17.460Z,12.71
2023-06-04T02:25:46.720Z,12.75
2023-06-04T02:28:15.214Z,12.67
2023-06-04T02:30:43.173Z,12.70
2023-06-04T02:33:11.943Z,12.74
2023-06-04T02:35:40.128Z,12.76
2023-06-04T02:38:08.168Z,12.24
2023-06-04T02:40:37.503Z,12.36
2023-06-04T02:43:05.469Z,12.46
2023-06-04T02:45:33.392Z,12.54
2023-06-04T02:48:01.442Z,12.60
2023-06-04T02:50:29.401Z,12.53
2023-06-04T02:52:57.376Z,12.45
2023-06-04T02:55:26.182Z,12.30
2023-06-04T02:57:55.549Z,12.04
2023-06-04T03:00:23.622Z,12.02
2023-06-04T03:02:51.623Z,12.09
2023-06-04T03:05:19.994Z,12.19
2023-06-04T03:07:48.930Z,12.23
2023-06-04T03:10:17.898Z,12.03
2023-06-04T03:12:45.877Z,11.84
2023-06-04T03:15:15.252Z,11.41
2023-06-04T03:17:43.621Z,11.36
2023-06-04T03:20:12.237Z,11.45
2023-06-04T03:22:40.353Z,11.52
2023-06-04T03:25:08.871Z,11.58
2023-06-04T03:27:36.934Z,11.41
2023-06-04T03:30:05.758Z,11.44
2023-06-04T03:32:35.231Z,11.54
2023-06-04T03:35:04.137Z,11.55
2023-06-04T03:37:33.923Z,11.65
2023-06-04T03:40:03.500Z,11.75
2023-06-04T03:42:31.490Z,11.91
2023-06-04T03:45:00.666Z,11.92
2023-06-04T03:47:28.673Z,11.81
2023-06-04T03:49:58.025Z,11.76
2023-06-04T03:52:26.000Z,11.73
2023-06-04T03:54:53.928Z,11.74
2023-06-04T03:57:21.917Z,11.66
2023-06-04T03:59:49.831Z,11.67
2023-06-04T04:02:18.258Z,11.73
2023-06-04T04:04:46.771Z,11.69
2023-06-04T04:07:16.745Z,11.81
2023-06-04T04:09:45.659Z,11.94
2023-06-04T04:12:13.607Z,12.02
2023-06-04T04:14:41.605Z,11.94
2023-06-04T04:17:09.640Z,11.73
2023-06-04T04:19:38.478Z,11.66
2023-06-04T04:22:06.405Z,11.76
2023-06-04T04:24:36.854Z,11.84
2023-06-04T04:27:05.331Z,11.83
2023-06-04T04:29:35.321Z,11.89
2023-06-04T04:32:11.364Z,11.95
2023-06-04T04:34:41.160Z,12.02
2023-06-04T04:37:10.727Z,12.01
2023-06-04T04:39:40.056Z,11.92
2023-06-04T04:42:08.020Z,12.01
2023-06-04T04:44:35.976Z,12.11
2023-06-04T04:47:03.937Z,12.11
2023-06-04T04:49:31.880Z,12.18
2023-06-04T04:51:59.796Z,12.24
2023-06-04T04:54:27.756Z,12.33
2023-06-04T04:57:12.150Z,12.56
2023-06-04T04:59:41.592Z,12.60
2023-06-04T05:02:09.665Z,12.76
2023-06-04T05:04:37.718Z,12.94
2023-06-04T05:07:06.026Z,12.94
2023-06-04T05:09:34.063Z,12.78
2023-06-04T05:12:03.998Z,12.85
2023-06-04T05:14:32.679Z,12.83
2023-06-04T05:17:00.723Z,12.98
2023-06-04T05:19:28.659Z,12.94
2023-06-04T05:21:56.612Z,13.03
2023-06-04T05:24:24.551Z,13.08
2023-06-04T05:26:52.532Z,13.10
2023-06-04T05:29:21.873Z,13.15
2023-06-04T05:31:49.877Z,13.31
2023-06-04T05:34:18.181Z,13.34
2023-06-04T05:36:46.110Z,13.37
2023-06-04T05:39:15.218Z,13.45
2023-06-04T05:41:44.644Z,13.64
2023-06-04T05:44:12.610Z,13.64
2023-06-04T05:46:42.263Z,13.54
2023-06-04T05:49:10.250Z,13.54
2023-06-04T05:51:38.479Z,13.67
2023-06-04T05:54:06.502Z,13.67
2023-06-04T05:56:34.478Z,13.86
2023-06-04T05:59:02.409Z,13.84
2023-06-04T06:01:30.788Z,13.81
2023-06-04T06:04:00.472Z,13.90
2023-06-04T06:06:29.680Z,13.78
2023-06-04T06:08:59.216Z,13.87
2023-06-04T06:11:28.051Z,14.29
2023-06-04T06:13:56.046Z,14.33
2023-06-04T06:16:24.121Z,14.56
2023-06-04T06:18:52.418Z,14.61
2023-06-04T06:21:21.750Z,14.85
2023-06-04T06:23:49.699Z,15.09
2023-06-04T06:26:20.740Z,15.02
2023-06-04T06:28:49.099Z,14.92
2023-06-04T06:31:17.470Z,14.79
2023-06-04T06:33:45.447Z,14.68
2023-06-04T06:36:13.990Z,14.57
2023-06-04T06:38:43.323Z,14.82
2023-06-04T06:41:11.303Z,15.13
2023-06-04T06:43:39.241Z,15.12
2023-06-04T06:46:07.872Z,15.11
2023-06-04T06:48:35.884Z,15.43
2023-06-04T06:51:03.869Z,15.51
2023-06-04T06:53:31.819Z,15.45
2023-06-04T06:56:01.118Z,15.80
2023-06-04T06:58:29.067Z,16.03
2023-06-04T07:00:57.780Z,16.11
2023-06-04T07:03:25.985Z,16.18
2023-06-04T07:05:53.950Z,16.09
2023-06-04T07:08:22.322Z,15.91
2023-06-04T07:10:50.343Z,16.14
2023-06-04T07:13:19.651Z,16.50
2023-06-04T07:15:47.581Z,16.32
2023-06-04T07:18:15.651Z,16.46
2023-06-04T07:20:43.637Z,16.77
2023-06-04T07:23:11.618Z,16.98
2023-06-04T07:25:39.572Z,16.54
2023-06-04T07:28:07.487Z,16.79
2023-06-04T07:30:37.888Z,16.97
2023-06-04T07:33:05.942Z,16.55
2023-06-04T07:35:33.916Z,16.59
2023-06-04T07:38:01.834Z,16.80
2023-06-04T07:40:30.176Z,17.06
2023-06-04T07:42:58.174Z,17.49
2023-06-04T07:45:27.607Z,17.32
2023-06-04T07:47:58.971Z,17.48
2023-06-04T07:50:27.578Z,18.02
2023-06-04T07:52:55.500Z,18.27
2023-06-04T07:55:23.766Z,18.47
2023-06-04T07:57:51.876Z,18.48
2023-06-04T08:00:19.934Z,18.37
2023-06-04T08:02:49.948Z,18.51
2023-06-04T08:05:19.368Z,18.94
2023-06-04T08:07:48.586Z,18.47
2023-06-04T08:10:16.618Z,18.46
2023-06-04T08:12:44.560Z,18.40
2023-06-04T08:15:12.946Z,19.01
2023-06-04T08:17:40.921Z,19.37
2023-06-04T08:20:11.017Z,19.12
2023-06-04T08:22:40.323Z,19.05
2023-06-04T08:25:09.961Z,19.35
2023-06-04T08:27:38.564Z,19.61
2023-06-04T08:30:08.252Z,19.73
2023-06-04T08:32:36.235Z,19.84
2023-06-04T08:35:04.333Z,19.98
2023-06-04T08:37:32.321Z,20.17
2023-06-04T08:40:01.726Z,20.25
2023-06-04T08:42:32.077Z,19.93
2023-06-04T08:45:00.341Z,20.32
2023-06-04T08:47:28.376Z,20.18
2023-06-04T08:49:58.524Z,20.14
2023-06-04T08:52:26.828Z,19.78
2023-06-04T08:54:56.787Z,20.16
2023-06-04T08:57:26.142Z,20.59
2023-06-04T08:59:54.311Z,20.85
2023-06-04T09:02:22.388Z,19.93
2023-06-04T09:04:50.656Z,20.19
2023-06-04T09:07:19.240Z,20.70
2023-06-04T09:09:57.347Z,21.20
2023-06-04T09:12:34.682Z,21.21
2023-06-04T09:15:02.611Z,21.23
2023-06-04T09:17:30.850Z,21.48
2023-06-04T09:19:58.848Z,21.64
2023-06-04T09:22:34.728Z,21.75
2023-06-04T09:25:03.028Z,21.79
2023-06-04T09:27:41.556Z,21.42
2023-06-04T09:30:10.790Z,21.59
2023-06-04T09:32:38.942Z,21.74
2023-06-04T09:35:15.251Z,22.05
2023-06-04T09:37:44.559Z,21.99
2023-06-04T09:40:13.004Z,21.35
2023-06-04T09:42:46.086Z,21.81
2023-06-04T09:45:14.435Z,22.15
2023-06-04T09:47:45.010Z,22.32
2023-06-04T09:50:16.073Z,22.40
2023-06-04T09:52:45.959Z,22.46
2023-06-04T09:55:21.199Z,22.55
2023-06-04T09:57:51.662Z,22.78
2023-06-04T10:00:21.793Z,22.66
2023-06-04T10:02:50.653Z,22.76
2023-06-04T10:05:22.762Z,22.85
2023-06-04T10:07:53.686Z,23.30
2023-06-04T10:10:28.306Z,23.39
2023-06-04T10:13:03.485Z,23.66
2023-06-04T10:15:33.324Z,23.62
2023-06-04T10:18:01.417Z,23.73
2023-06-04T10:20:29.838Z,23.49
2023-06-04T10:22:57.781Z,23.64
2023-06-04T10:25:26.218Z,21.79
2023-06-04T10:27:54.539Z,22.43
2023-06-04T10:30:23.871Z,23.33
2023-06-04T10:32:52.643Z,23.30
2023-06-04T10:35:32.209Z,22.84
2023-06-04T10:38:11.649Z,21.36
2023-06-04T10:40:40.094Z,21.44
2023-06-04T10:43:08.694Z,22.65
2023-06-04T10:45:38.706Z,23.09
2023-06-04T10:48:08.943Z,23.57
2023-06-04T10:50:38.303Z,23.72
2023-06-04T10:53:06.705Z,23.73
2023-06-04T10:55:35.998Z,24.05
2023-06-04T10:58:07.873Z,23.54
2023-06-04T11:00:41.509Z,22.23
2023-06-04T11:03:12.678Z,22.43
2023-06-04T11:05:42.567Z,21.81
2023-06-04T11:08:11.460Z,21.27
2023-06-04T11:10:41.552Z,22.23
2023-06-04T11:13:09.685Z,23.02
2023-06-04T11:15:43.462Z,24.05
2023-06-04T11:18:16.771Z,23.87
2023-06-04T11:20:47.009Z,23.95
2023-06-04T11:23:15.451Z,23.95
2023-06-04T11:25:45.226Z,23.16
2023-06-04T11:28:17.962Z,23.44
2023-06-04T11:30:59.683Z,23.15
2023-06-04T11:33:27.684Z,23.41
2023-06-04T11:35:55.813Z,22.37
2023-06-04T11:38:23.826Z,23.62
2023-06-04T11:41:02.319Z,23.76
2023-06-04T11:43:30.538Z,23.12
2023-06-04T11:46:01.062Z,22.55
2023-06-04T11:48:29.339Z,23.44
2023-06-04T11:50:57.427Z,24.29
2023-06-04T11:53:25.538Z,24.17
2023-06-04T11:55:53.606Z,23.27
2023-06-04T11:58:21.686Z,24.89
2023-06-04T12:00:49.659Z,25.55
2023-06-04T12:03:19.193Z,26.13
2023-06-04T12:05:47.157Z,25.69
2023-06-04T12:08:15.745Z,25.82
2023-06-04T12:10:44.550Z,25.18
2023-06-04T12:13:13.017Z,25.12
2023-06-04T12:15:41.219Z,25.21
2023-06-04T12:18:10.855Z,26.22
2023-06-04T12:20:41.355Z,26.15
2023-06-04T12:23:09.361Z,25.54
2023-06-04T12:25:38.926Z,25.41
2023-06-04T12:28:07.347Z,25.52
2023-06-04T12:30:38.864Z,26.90
2023-06-04T12:33:07.091Z,27.18
2023-06-04T12:35:35.821Z,27.45
2023-06-04T12:38:10.184Z,27.20
2023-06-04T12:40:38.332Z,26.52
2023-06-04T12:43:07.733Z,26.51
2023-06-04T12:45:35.777Z,27.47
2023-06-04T12:48:03.810Z,27.50
2023-06-04T12:50:31.853Z,26.70
2023-06-04T12:52:59.775Z,26.90
2023-06-04T12:55:29.126Z,27.06
2023-06-04T12:57:57.101Z,27.29
2023-06-04T13:00:27.883Z,27.79
2023-06-04T13:02:56.113Z,27.31
2023-06-04T13:05:26.927Z,26.22
2023-06-04T13:07:54.984Z,27.43
2023-06-04T13:10:23.060Z,27.56
2023-06-04T13:12:54.469Z,26.41
2023-06-04T13:15:23.261Z,27.13
2023-06-04T13:17:51.376Z,27.68
2023-06-04T13:20:19.334Z,28.02
2023-06-04T13:22:48.281Z,28.06
2023-06-04T13:25:16.363Z,28.14
2023-06-04T13:27:44.735Z,27.92
2023-06-04T13:30:15.681Z,28.04
2023-06-04T13:32:47.034Z,27.30
2023-06-04T13:35:15.250Z,27.87
2023-06-04T13:37:45.961Z,27.09
2023-06-04T13:40:15.560Z,27.65
2023-06-04T13:42:43.977Z,28.24
2023-06-04T13:45:12.197Z,28.34
2023-06-04T13:47:41.576Z,27.48
2023-06-04T13:50:10.109Z,27.55
2023-06-04T13:52:38.116Z,27.20
2023-06-04T13:55:09.646Z,27.53
2023-06-04T13:57:37.639Z,28.13
2023-06-04T14:00:07.961Z,27.54
2023-06-04T14:02:36.138Z,27.35
2023-06-04T14:05:07.496Z,26.97
2023-06-04T14:07:35.699Z,26.29
2023-06-04T14:10:03.727Z,26.26
2023-06-04T14:12:31.679Z,26.58
2023-06-04T14:14:59.765Z,26.39
2023-06-04T14:17:27.780Z,26.90
2023-06-04T14:19:55.888Z,27.32
2023-06-04T14:22:25.240Z,27.34
2023-06-04T14:24:53.311Z,27.46
2023-06-04T14:27:21.453Z,28.15
2023-06-04T14:29:49.420Z,28.33
2023-06-04T14:32:17.460Z,27.82
2023-06-04T14:34:46.587Z,27.86
2023-06-04T14:37:14.571Z,28.21
2023-06-04T14:39:43.917Z,28.09
2023-06-04T14:42:11.878Z,27.96
2023-06-04T14:44:39.846Z,27.82
2023-06-04T14:47:08.217Z,27.72
2023-06-04T14:49:37.402Z,27.43
2023-06-04T14:52:05.898Z,27.68
2023-06-04T14:54:35.062Z,28.06
2023-06-04T14:57:04.608Z,27.90
2023-06-04T14:59:32.536Z,27.63
2023-06-04T15:02:00.825Z,27.72
2023-06-04T15:04:28.798Z,27.80
2023-06-04T15:06:56.729Z,28.38
2023-06-04T15:09:25.249Z,28.38
2023-06-04T15:11:53.180Z,28.20
2023-06-04T15:14:22.498Z,27.92
2023-06-04T15:16:50.628Z,27.20
2023-06-04T15:19:18.690Z,27.63
2023-06-04T15:21:46.643Z,28.02
2023-06-04T15:24:14.629Z,28.27
2023-06-04T15:26:42.594Z,28.42
2023-06-04T15:29:10.955Z,28.04
2023-06-04T15:31:40.338Z,27.20
2023-06-04T15:34:08.362Z,28.18
2023-06-04T15:36:38.604Z,27.85
2023-06-04T15:39:06.598Z,28.38
2023-06-04T15:41:34.568Z,28.58
2023-06-04T15:44:18.314Z,28.32
2023-06-04T15:46:47.790Z,27.85
2023-06-04T15:49:16.608Z,26.73
2023-06-04T15:51:44.540Z,27.22
2023-06-04T15:54:12.465Z,26.29
2023-06-04T15:56:40.707Z,27.21
2023-06-04T15:59:08.649Z,27.04
2023-06-04T16:01:36.718Z,27.34
2023-06-04T16:04:06.171Z,27.27
2023-06-04T16:06:34.227Z,26.71
2023-06-04T16:09:02.174Z,26.59
2023-06-04T16:11:30.142Z,26.37
2023-06-04T16:13:58.158Z,25.49
2023-06-04T16:16:26.226Z,26.29
2023-06-04T16:18:54.211Z,25.87
2023-06-04T16:21:23.976Z,26.70
2023-06-04T16:23:52.384Z,26.35
2023-06-04T16:26:20.594Z,25.88
2023-06-04T16:28:48.521Z,26.33
2023-06-04T16:31:16.511Z,26.38
2023-06-04T16:33:44.660Z,25.51
2023-06-04T16:36:12.755Z,25.33
2023-06-04T16:38:42.160Z,25.18
2023-06-04T16:41:10.121Z,26.29
2023-06-04T16:43:38.467Z,25.97
2023-06-04T16:46:06.571Z,26.23
2023-06-04T16:48:36.275Z,26.48
2023-06-04T16:51:05.790Z,26.48
2023-06-04T16:53:33.792Z,26.77
2023-06-04T16:56:03.130Z,26.13
2023-06-04T16:58:31.431Z,26.58
2023-06-04T17:00:59.401Z,25.43
2023-06-04T17:03:27.458Z,25.41
2023-06-04T17:05:55.581Z,25.96
2023-06-04T17:08:23.617Z,25.81
2023-06-04T17:10:54.672Z,24.84
2023-06-04T17:13:24.151Z,25.42
2023-06-04T17:15:52.081Z,24.26
2023-06-04T17:18:21.546Z,23.78
2023-06-04T17:20:49.660Z,23.43
2023-06-04T17:23:22.007Z,23.81
2023-06-04T17:25:50.011Z,23.98
2023-06-04T17:28:17.989Z,24.43
2023-06-04T17:30:47.680Z,23.16
2023-06-04T17:33:16.161Z,23.12
2023-06-04T17:35:44.319Z,23.54
2023-06-04T17:38:12.249Z,23.78
2023-06-04T17:40:40.245Z,24.05
2023-06-04T17:43:08.271Z,23.86
2023-06-04T17:45:36.500Z,23.19
2023-06-04T17:48:06.775Z,23.66
2023-06-04T17:50:34.755Z,23.98
2023-06-04T17:53:02.676Z,22.67
2023-06-04T17:55:30.702Z,22.37
2023-06-04T17:57:58.672Z,21.46
2023-06-04T18:00:26.703Z,21.65
2023-06-04T18:02:54.696Z,22.10
2023-06-04T18:05:24.071Z,21.95
2023-06-04T18:07:52.100Z,21.63
2023-06-04T18:10:21.349Z,20.74
2023-06-04T18:12:49.307Z,20.12
2023-06-04T18:15:19.758Z,21.15
2023-06-04T18:17:48.004Z,20.94
2023-06-04T18:20:18.885Z,20.81
2023-06-04T18:22:48.208Z,20.73
2023-06-04T18:25:16.407Z,20.75
2023-06-04T18:27:45.012Z,20.73
2023-06-04T18:30:14.793Z,20.93
2023-06-04T18:32:43.939Z,20.82
2023-06-04T18:35:12.852Z,20.79
2023-06-04T18:37:41.202Z,20.82
2023-06-04T18:40:13.471Z,20.08
2023-06-04T18:42:41.817Z,19.58
2023-06-04T18:45:11.155Z,20.20
2023-06-04T18:47:39.401Z,20.48
2023-06-04T18:50:08.418Z,20.53
2023-06-04T18:52:39.153Z,20.21
2023-06-04T18:55:10.716Z,20.06
2023-06-04T18:57:38.819Z,20.03
2023-06-04T19:00:09.692Z,20.22
2023-06-04T19:02:38.086Z,20.30
2023-06-04T19:05:09.835Z,19.88
2023-06-04T19:07:39.184Z,19.52
2023-06-04T19:10:08.233Z,18.84
2023-06-04T19:12:37.568Z,18.98
2023-06-04T19:15:07.222Z,18.89
2023-06-04T19:17:35.321Z,19.02
2023-06-04T19:20:03.327Z,18.47
2023-06-04T19:22:31.252Z,18.02
2023-06-04T19:24:59.225Z,18.17
2023-06-04T19:27:27.198Z,18.15
2023-06-04T19:29:56.522Z,17.93
2023-06-04T19:32:29.019Z,18.23
2023-06-04T19:34:57.109Z,18.48
2023-06-04T19:37:25.076Z,18.43
2023-06-04T19:39:53.040Z,18.08
2023-06-04T19:42:21.706Z,18.27
2023-06-04T19:44:49.701Z,17.58
2023-06-04T19:47:19.009Z,17.31
2023-06-04T19:49:47.609Z,16.77
2023-06-04T19:52:15.560Z,16.29
2023-06-04T19:54:43.565Z,16.24
2023-06-04T19:57:11.541Z,16.34
2023-06-04T19:59:40.507Z,16.21
2023-06-04T20:02:09.657Z,15.52
2023-06-04T20:04:39.098Z,16.70
2023-06-04T20:07:07.349Z,17.00
2023-06-04T20:09:35.811Z,17.42
2023-06-04T20:12:04.019Z,17.22
2023-06-04T20:14:33.113Z,17.53
2023-06-04T20:17:01.278Z,17.71
2023-06-04T20:19:29.353Z,17.65
2023-06-04T20:21:58.714Z,17.98
2023-06-04T20:24:26.733Z,17.96
2023-06-04T20:26:54.670Z,17.74
2023-06-04T20:29:22.599Z,17.83
2023-06-04T20:31:50.554Z,17.60
2023-06-04T20:34:20.072Z,17.61
2023-06-04T20:36:48.074Z,17.43
2023-06-04T20:39:17.453Z,17.30
2023-06-04T20:41:45.781Z,17.35
2023-06-04T20:44:13.713Z,16.98
2023-06-04T20:46:41.722Z,17.19
2023-06-04T20:49:09.780Z,17.30
2023-06-04T20:51:37.842Z,17.44
2023-06-04T20:54:06.949Z,17.51
2023-06-04T20:56:36.271Z,17.60
2023-06-04T20:59:04.319Z,17.43
2023-06-04T21:01:32.300Z,17.37
2023-06-04T21:04:01.501Z,17.37
2023-06-04T21:06:29.665Z,17.21
2023-06-04T21:08:57.642Z,16.74
2023-06-04T21:11:25.590Z,16.60
2023-06-04T21:13:54.898Z,16.63
2023-06-04T21:16:22.972Z,16.73
2023-06-04T21:18:52.464Z,16.53
2023-06-04T21:21:20.612Z,16.62
2023-06-04T21:23:48.594Z,15.92
2023-06-04T21:26:18.007Z,15.43
2023-06-04T21:28:45.946Z,15.22
2023-06-04T21:31:15.822Z,15.41
2023-06-04T21:33:43.768Z,16.02
2023-06-04T21:36:11.762Z,16.42
2023-06-04T21:38:39.715Z,16.40
2023-06-04T21:41:07.842Z,16.31
2023-06-04T21:43:36.018Z,15.82
2023-06-04T21:46:04.230Z,15.33
2023-06-04T21:48:33.600Z,15.40
2023-06-04T21:51:01.560Z,15.82
2023-06-04T21:53:29.471Z,16.07
2023-06-04T21:55:57.451Z,16.17
2023-06-04T21:58:25.392Z,16.19
2023-06-04T22:00:53.432Z,16.22
2023-06-04T22:03:21.489Z,16.23
2023-06-04T22:05:50.997Z,16.21
2023-06-04T22:08:18.934Z,16.12
2023-06-04T22:10:47.165Z,16.02
2023-06-04T22:13:15.116Z,16.04
2023-06-04T22:15:43.259Z,16.07
2023-06-04T22:18:11.361Z,16.00
2023-06-04T22:20:39.312Z,15.70
2023-06-04T22:23:08.635Z,15.16
2023-06-04T22:25:36.603Z,14.71
2023-06-04T22:28:04.603Z,14.74
2023-06-04T22:30:32.659Z,15.00
2023-06-04T22:33:00.682Z,15.36
2023-06-04T22:35:28.806Z,15.42
2023-06-04T22:37:56.800Z,15.53
2023-06-04T22:40:26.428Z,15.49
2023-06-04T22:42:55.780Z,15.56
2023-06-04T22:45:23.997Z,15.55
2023-06-04T22:47:51.961Z,15.19
2023-06-04T22:50:19.987Z,14.89
2023-06-04T22:52:47.916Z,15.14
2023-06-04T22:55:16.058Z,15.36
2023-06-04T22:57:45.775Z,15.46
2023-06-04T23:00:14.886Z,15.44
2023-06-04T23:02:42.901Z,15.33
2023-06-04T23:05:11.354Z,15.31
2023-06-04T23:07:39.317Z,15.22
2023-06-04T23:10:08.318Z,14.96
2023-06-04T23:12:36.224Z,14.89
2023-06-04T23:15:06.449Z,15.12
2023-06-04T23:17:34.499Z,15.20
2023-06-04T23:20:03.876Z,15.06
2023-06-04T23:22:32.482Z,14.83
2023-06-04T23:25:00.396Z,14.81
2023-06-04T23:27:28.935Z,14.98
2023-06-04T23:29:57.103Z,14.96
2023-06-04T23:32:26.462Z,14.94
2023-06-04T23:34:54.468Z,14.89
2023-06-04T23:37:22.575Z,14.79
2023-06-04T23:39:51.634Z,14.66
2023-06-04T23:42:19.568Z,14.68
2023-06-04T23:44:47.572Z,14.49
2023-06-04T23:47:15.528Z,14.45
2023-06-04T23:49:45.479Z,14.35
2023-06-04T23:52:13.728Z,14.30
2023-06-04T23:54:41.648Z,14.28
2023-06-04T23:57:09.594Z,14.22
2023-06-04T23:59:37.592Z,14.13
